Edgerton, WY (82635)

8:00 PM MDT on July 29, 2014 (GMT -0600)
Natrona County International (KCPR) Elev 5289 ft | 42.90 °N, 106.47 °W | Change Station

Current weather conditions updated 7 minutes ago

Light Rain
Light Rain
58 °F
Feels Like 58 °F
N
10
Wind Variable Wind from ENE

Tomorrow is forecast to be Warmer than today.

Today
High -- | Low -- °F
--% Chance of Precip.
Yesterday
High -- | Low -- °F
Precip. -- in
5:51 AM 8:30 PM
Waxing Crescent, 9% visible
Pressure 30.19 in
Visibility 10.0 miles
Clouds Overcast 8500 ft
Dew Point 55 °F
Humidity 90%
Rainfall 0.06 in
Snow Depth Not available.
UV 0 out of 12
Pollen 4.20 out of 12
Air Quality Not available.
Flu Activity Not available.
METAR KCPR 300153Z 07009KT 10SM -RA OVC085 14/13 A3032 RMK AO2 SLP223 P0006 T01440128

More Conditions Fewer Conditions

Pressure 30.19 in
Visibility 10.0 miles
Clouds Overcast 8500 ft
Dew Point 55 °F
Humidity 90%
Rainfall 0.06 in
Snow Depth Not available.
UV 0 out of 12
Pollen 4.20 out of 12
Air Quality Not available.
Flu Activity Not available.
METAR KCPR 300153Z 07009KT 10SM -RA OVC085 14/13 A3032 RMK AO2 SLP223 P0006 T01440128

More Conditions Fewer Conditions

10-Day Weather Forecast

Almanac

Astronomy

Jul. 29, 2014 Rise Set
Actual Time 5:51 AM MDT 8:30 PM MDT
Civil Twilight 5:18 AM MDT 9:03 PM MDT
Nautical Twilight 4:37 AM MDT 9:44 PM MDT
Astronomical Twilight 3:50 AM MDT 10:31 PM MDT
Moon 8:36 AM MDT (7/29) 9:37 PM MDT (7/29)
Length of Visible Light 15h 44m
Length of Day
14h 38m
Tomorrow will be 2m 11s shorter.
Waxing Crescent, 9% of the Moon is Illuminated
Today
Waxing Crescent
Aug 3
First Quarter
Aug 10
Full
Aug 17
Last Quarter
Aug 25
New

Today's Extremes

State Highs State Lows

Community

WunderPhotos

Upload Photos

1,738,953 photos uploaded!

Nearby

Snow Depth

Station Depth Elevation
Casper Mountain 1 in 7850 ft
Sand Lake 0 in 10050 ft
Brooklyn Lake 0 in 10220 ft
South Brush Creek 0 in 8440 ft
Divide Peak 0 in 8860 ft

Earthquake Activity

City Distance Mag. Time & Date
No recent earthquake activity has been reported nearby.
Minimum magnitude displayed is 2.5.

Coastal Water Temperatures

Place Temperature
No Stations Reporting

Nearby Weather Stations

There are no personal weather stations in this area.